sensor_id;sensor_type;location;lat;lon;timestamp;P1;durP1;ratioP1;P2;durP2;ratioP2
38123;SDS011;23934;47.998;9.832;2022-10-26T00:02:21;18.42;;;4.70;;
38123;SDS011;23934;47.998;9.832;2022-10-26T00:04:47;6.65;;;3.75;;
38123;SDS011;23934;47.998;9.832;2022-10-26T00:07:13;16.52;;;4.53;;
38123;SDS011;23934;47.998;9.832;2022-10-26T00:09:39;8.90;;;4.20;;
38123;SDS011;23934;47.998;9.832;2022-10-26T00:12:05;7.57;;;3.55;;
38123;SDS011;23934;47.998;9.832;2022-10-26T00:14:31;8.02;;;3.55;;
38123;SDS011;23934;47.998;9.832;2022-10-26T00:16:57;10.32;;;3.22;;
38123;SDS011;23934;47.998;9.832;2022-10-26T00:19:23;7.18;;;3.10;;
38123;SDS011;23934;47.998;9.832;2022-10-26T00:21:49;16.60;;;3.13;;
38123;SDS011;23934;47.998;9.832;2022-10-26T00:24:15;9.40;;;3.63;;
38123;SDS011;23934;47.998;9.832;2022-10-26T00:26:41;13.02;;;3.58;;
38123;SDS011;23934;47.998;9.832;2022-10-26T00:29:07;12.10;;;3.38;;
38123;SDS011;23934;47.998;9.832;2022-10-26T00:31:33;9.68;;;3.65;;
38123;SDS011;23934;47.998;9.832;2022-10-26T00:33:59;10.73;;;3.15;;
38123;SDS011;23934;47.998;9.832;2022-10-26T00:36:25;9.40;;;3.55;;
38123;SDS011;23934;47.998;9.832;2022-10-26T00:38:52;7.80;;;3.15;;
38123;SDS011;23934;47.998;9.832;2022-10-26T00:41:28;15.98;;;4.72;;
38123;SDS011;23934;47.998;9.832;2022-10-26T00:43:54;9.55;;;3.60;;
38123;SDS011;23934;47.998;9.832;2022-10-26T00:46:22;8.05;;;3.60;;
38123;SDS011;23934;47.998;9.832;2022-10-26T00:48:50;14.35;;;3.97;;
38123;SDS011;23934;47.998;9.832;2022-10-26T00:51:22;9.50;;;3.90;;
38123;SDS011;23934;47.998;9.832;2022-10-26T00:53:49;10.57;;;4.20;;
38123;SDS011;23934;47.998;9.832;2022-10-26T00:56:16;10.35;;;4.18;;
38123;SDS011;23934;47.998;9.832;2022-10-26T00:58:42;9.05;;;4.38;;
38123;SDS011;23934;47.998;9.832;2022-10-26T01:01:08;10.27;;;5.22;;
38123;SDS011;23934;47.998;9.832;2022-10-26T01:03:35;19.63;;;4.95;;
38123;SDS011;23934;47.998;9.832;2022-10-26T01:06:01;14.13;;;4.63;;
38123;SDS011;23934;47.998;9.832;2022-10-26T01:08:28;24.77;;;5.10;;
38123;SDS011;23934;47.998;9.832;2022-10-26T01:10:55;9.40;;;3.85;;
38123;SDS011;23934;47.998;9.832;2022-10-26T01:13:22;9.02;;;4.20;;
38123;SDS011;23934;47.998;9.832;2022-10-26T01:26:47;6.60;;;3.10;;
38123;SDS011;23934;47.998;9.832;2022-10-26T01:29:22;6.15;;;3.15;;
38123;SDS011;23934;47.998;9.832;2022-10-26T01:31:55;6.13;;;3.10;;
38123;SDS011;23934;47.998;9.832;2022-10-26T01:34:24;8.60;;;3.03;;
38123;SDS011;23934;47.998;9.832;2022-10-26T01:36:54;7.63;;;2.95;;
38123;SDS011;23934;47.998;9.832;2022-10-26T01:42:00;13.18;;;4.82;;
38123;SDS011;23934;47.998;9.832;2022-10-26T01:44:51;7.10;;;3.15;;
38123;SDS011;23934;47.998;9.832;2022-10-26T01:47:18;5.53;;;2.65;;
38123;SDS011;23934;47.998;9.832;2022-10-26T01:49:47;12.82;;;3.80;;
38123;SDS011;23934;47.998;9.832;2022-10-26T01:52:14;6.65;;;2.78;;
38123;SDS011;23934;47.998;9.832;2022-10-26T01:54:40;7.35;;;3.05;;
38123;SDS011;23934;47.998;9.832;2022-10-26T01:57:07;11.40;;;3.58;;
38123;SDS011;23934;47.998;9.832;2022-10-26T02:03:05;12.75;;;3.83;;
38123;SDS011;23934;47.998;9.832;2022-10-26T02:13:24;8.00;;;2.63;;
38123;SDS011;23934;47.998;9.832;2022-10-26T02:21:12;5.82;;;2.25;;
38123;SDS011;23934;47.998;9.832;2022-10-26T02:23:40;4.50;;;2.45;;
38123;SDS011;23934;47.998;9.832;2022-10-26T02:26:08;11.80;;;2.85;;
38123;SDS011;23934;47.998;9.832;2022-10-26T02:28:37;7.00;;;2.88;;
38123;SDS011;23934;47.998;9.832;2022-10-26T02:31:05;10.45;;;2.85;;
38123;SDS011;23934;47.998;9.832;2022-10-26T02:33:34;4.70;;;2.35;;
38123;SDS011;23934;47.998;9.832;2022-10-26T02:36:01;5.90;;;2.70;;
38123;SDS011;23934;47.998;9.832;2022-10-26T02:38:29;5.40;;;2.30;;
38123;SDS011;23934;47.998;9.832;2022-10-26T02:40:57;9.25;;;2.38;;
38123;SDS011;23934;47.998;9.832;2022-10-26T02:43:24;13.68;;;2.35;;
38123;SDS011;23934;47.998;9.832;2022-10-26T02:45:53;7.50;;;3.55;;
38123;SDS011;23934;47.998;9.832;2022-10-26T02:48:20;4.38;;;2.28;;
38123;SDS011;23934;47.998;9.832;2022-10-26T02:51:04;6.45;;;2.67;;
38123;SDS011;23934;47.998;9.832;2022-10-26T02:56:02;12.27;;;2.80;;
38123;SDS011;23934;47.998;9.832;2022-10-26T02:58:30;4.38;;;2.25;;
38123;SDS011;23934;47.998;9.832;2022-10-26T03:00:58;7.70;;;3.20;;
38123;SDS011;23934;47.998;9.832;2022-10-26T03:03:24;7.35;;;3.33;;
38123;SDS011;23934;47.998;9.832;2022-10-26T03:05:50;9.27;;;3.63;;
38123;SDS011;23934;47.998;9.832;2022-10-26T03:08:16;12.77;;;3.47;;
38123;SDS011;23934;47.998;9.832;2022-10-26T03:10:43;8.32;;;3.45;;
38123;SDS011;23934;47.998;9.832;2022-10-26T03:13:10;6.90;;;2.42;;
38123;SDS011;23934;47.998;9.832;2022-10-26T03:15:36;16.58;;;3.22;;
38123;SDS011;23934;47.998;9.832;2022-10-26T03:18:02;5.97;;;2.70;;
38123;SDS011;23934;47.998;9.832;2022-10-26T03:20:28;9.18;;;3.55;;
38123;SDS011;23934;47.998;9.832;2022-10-26T03:22:54;9.95;;;3.55;;
38123;SDS011;23934;47.998;9.832;2022-10-26T03:25:21;8.13;;;2.78;;
38123;SDS011;23934;47.998;9.832;2022-10-26T03:27:54;6.63;;;2.80;;
38123;SDS011;23934;47.998;9.832;2022-10-26T03:30:20;8.75;;;3.03;;
38123;SDS011;23934;47.998;9.832;2022-10-26T03:32:46;7.72;;;2.80;;
38123;SDS011;23934;47.998;9.832;2022-10-26T03:35:12;9.23;;;3.20;;
38123;SDS011;23934;47.998;9.832;2022-10-26T03:37:38;7.78;;;2.85;;
38123;SDS011;23934;47.998;9.832;2022-10-26T03:40:04;15.73;;;4.13;;
38123;SDS011;23934;47.998;9.832;2022-10-26T03:42:35;16.50;;;4.43;;
38123;SDS011;23934;47.998;9.832;2022-10-26T03:45:01;5.95;;;2.30;;
38123;SDS011;23934;47.998;9.832;2022-10-26T03:47:26;6.13;;;2.40;;
38123;SDS011;23934;47.998;9.832;2022-10-26T03:49:52;4.22;;;2.20;;
38123;SDS011;23934;47.998;9.832;2022-10-26T03:52:18;7.15;;;2.47;;
38123;SDS011;23934;47.998;9.832;2022-10-26T03:54:44;6.53;;;2.17;;
38123;SDS011;23934;47.998;9.832;2022-10-26T03:57:10;6.55;;;3.03;;
38123;SDS011;23934;47.998;9.832;2022-10-26T03:59:36;10.23;;;3.40;;
38123;SDS011;23934;47.998;9.832;2022-10-26T04:02:02;12.93;;;5.13;;
38123;SDS011;23934;47.998;9.832;2022-10-26T04:04:28;8.95;;;3.42;;
38123;SDS011;23934;47.998;9.832;2022-10-26T04:06:54;20.52;;;4.47;;
38123;SDS011;23934;47.998;9.832;2022-10-26T04:09:20;16.10;;;4.18;;
38123;SDS011;23934;47.998;9.832;2022-10-26T04:11:46;9.70;;;4.22;;
38123;SDS011;23934;47.998;9.832;2022-10-26T04:14:12;12.77;;;4.47;;
38123;SDS011;23934;47.998;9.832;2022-10-26T04:16:38;6.47;;;3.28;;
38123;SDS011;23934;47.998;9.832;2022-10-26T04:19:04;11.70;;;3.97;;
38123;SDS011;23934;47.998;9.832;2022-10-26T04:21:30;10.07;;;4.22;;
38123;SDS011;23934;47.998;9.832;2022-10-26T04:23:59;8.80;;;3.67;;
38123;SDS011;23934;47.998;9.832;2022-10-26T04:26:25;11.43;;;3.63;;
38123;SDS011;23934;47.998;9.832;2022-10-26T04:28:51;13.52;;;4.35;;
38123;SDS011;23934;47.998;9.832;2022-10-26T04:31:17;10.13;;;4.05;;
38123;SDS011;23934;47.998;9.832;2022-10-26T04:33:43;9.90;;;3.90;;
38123;SDS011;23934;47.998;9.832;2022-10-26T04:36:09;7.97;;;3.55;;
38123;SDS011;23934;47.998;9.832;2022-10-26T04:38:35;8.75;;;3.92;;
38123;SDS011;23934;47.998;9.832;2022-10-26T04:41:01;9.60;;;4.15;;
38123;SDS011;23934;47.998;9.832;2022-10-26T04:43:27;12.50;;;4.18;;
38123;SDS011;23934;47.998;9.832;2022-10-26T04:45:54;10.85;;;4.20;;
38123;SDS011;23934;47.998;9.832;2022-10-26T04:48:20;11.88;;;4.22;;
38123;SDS011;23934;47.998;9.832;2022-10-26T04:50:46;16.25;;;4.65;;
38123;SDS011;23934;47.998;9.832;2022-10-26T04:53:12;11.10;;;5.20;;
38123;SDS011;23934;47.998;9.832;2022-10-26T04:55:38;10.35;;;3.90;;
38123;SDS011;23934;47.998;9.832;2022-10-26T04:58:04;10.93;;;4.10;;
38123;SDS011;23934;47.998;9.832;2022-10-26T05:00:31;11.98;;;3.80;;
38123;SDS011;23934;47.998;9.832;2022-10-26T05:03:00;7.63;;;3.75;;
38123;SDS011;23934;47.998;9.832;2022-10-26T05:05:27;11.93;;;4.28;;
38123;SDS011;23934;47.998;9.832;2022-10-26T05:07:53;13.77;;;4.60;;
38123;SDS011;23934;47.998;9.832;2022-10-26T05:10:20;22.60;;;5.18;;
38123;SDS011;23934;47.998;9.832;2022-10-26T05:12:50;5.88;;;2.95;;
38123;SDS011;23934;47.998;9.832;2022-10-26T05:15:16;4.97;;;2.85;;
38123;SDS011;23934;47.998;9.832;2022-10-26T05:17:41;10.80;;;3.92;;
38123;SDS011;23934;47.998;9.832;2022-10-26T05:20:08;6.95;;;3.47;;
38123;SDS011;23934;47.998;9.832;2022-10-26T05:22:37;23.10;;;4.38;;
38123;SDS011;23934;47.998;9.832;2022-10-26T05:25:03;10.77;;;4.05;;
38123;SDS011;23934;47.998;9.832;2022-10-26T05:27:29;12.98;;;4.97;;
38123;SDS011;23934;47.998;9.832;2022-10-26T05:29:55;8.30;;;3.97;;
38123;SDS011;23934;47.998;9.832;2022-10-26T05:32:21;6.70;;;3.47;;
38123;SDS011;23934;47.998;9.832;2022-10-26T05:34:47;11.63;;;4.32;;
38123;SDS011;23934;47.998;9.832;2022-10-26T05:37:13;8.02;;;4.28;;
38123;SDS011;23934;47.998;9.832;2022-10-26T05:39:39;12.13;;;4.70;;
38123;SDS011;23934;47.998;9.832;2022-10-26T05:42:05;15.52;;;4.65;;
38123;SDS011;23934;47.998;9.832;2022-10-26T05:44:31;16.70;;;5.70;;
38123;SDS011;23934;47.998;9.832;2022-10-26T05:46:57;14.32;;;5.43;;
38123;SDS011;23934;47.998;9.832;2022-10-26T05:49:23;12.15;;;4.38;;
38123;SDS011;23934;47.998;9.832;2022-10-26T05:51:49;12.25;;;4.53;;
38123;SDS011;23934;47.998;9.832;2022-10-26T05:54:15;11.95;;;4.65;;
38123;SDS011;23934;47.998;9.832;2022-10-26T05:56:41;7.80;;;3.75;;
38123;SDS011;23934;47.998;9.832;2022-10-26T05:59:10;8.82;;;4.00;;
38123;SDS011;23934;47.998;9.832;2022-10-26T06:01:41;9.77;;;4.32;;
38123;SDS011;23934;47.998;9.832;2022-10-26T06:06:46;9.35;;;4.03;;
38123;SDS011;23934;47.998;9.832;2022-10-26T06:09:17;16.00;;;5.25;;
38123;SDS011;23934;47.998;9.832;2022-10-26T06:11:43;14.52;;;4.05;;
38123;SDS011;23934;47.998;9.832;2022-10-26T06:14:10;9.40;;;4.22;;
38123;SDS011;23934;47.998;9.832;2022-10-26T06:24:37;11.68;;;5.00;;
38123;SDS011;23934;47.998;9.832;2022-10-26T06:27:18;7.93;;;3.30;;
38123;SDS011;23934;47.998;9.832;2022-10-26T06:30:02;9.48;;;3.83;;
38123;SDS011;23934;47.998;9.832;2022-10-26T06:32:28;9.10;;;3.67;;
38123;SDS011;23934;47.998;9.832;2022-10-26T06:37:26;14.40;;;3.55;;
38123;SDS011;23934;47.998;9.832;2022-10-26T06:39:53;9.13;;;2.85;;
38123;SDS011;23934;47.998;9.832;2022-10-26T06:42:20;5.18;;;2.22;;
38123;SDS011;23934;47.998;9.832;2022-10-26T06:44:46;7.80;;;2.55;;
38123;SDS011;23934;47.998;9.832;2022-10-26T06:47:26;31.88;;;2.35;;
38123;SDS011;23934;47.998;9.832;2022-10-26T06:52:34;5.32;;;2.00;;
38123;SDS011;23934;47.998;9.832;2022-10-26T06:55:02;3.97;;;2.40;;
38123;SDS011;23934;47.998;9.832;2022-10-26T06:57:33;4.95;;;2.45;;
38123;SDS011;23934;47.998;9.832;2022-10-26T07:02:28;6.97;;;2.33;;
38123;SDS011;23934;47.998;9.832;2022-10-26T07:04:54;3.60;;;1.83;;
38123;SDS011;23934;47.998;9.832;2022-10-26T07:07:21;5.45;;;2.13;;
38123;SDS011;23934;47.998;9.832;2022-10-26T07:09:48;6.50;;;2.05;;
38123;SDS011;23934;47.998;9.832;2022-10-26T07:12:14;11.77;;;2.00;;
38123;SDS011;23934;47.998;9.832;2022-10-26T07:14:40;7.10;;;1.77;;
38123;SDS011;23934;47.998;9.832;2022-10-26T07:17:07;4.35;;;1.45;;
38123;SDS011;23934;47.998;9.832;2022-10-26T07:19:34;7.47;;;2.05;;
38123;SDS011;23934;47.998;9.832;2022-10-26T07:22:00;5.20;;;1.65;;
38123;SDS011;23934;47.998;9.832;2022-10-26T07:24:26;7.30;;;1.58;;
38123;SDS011;23934;47.998;9.832;2022-10-26T07:26:53;6.05;;;1.70;;
38123;SDS011;23934;47.998;9.832;2022-10-26T07:29:19;3.60;;;1.60;;
38123;SDS011;23934;47.998;9.832;2022-10-26T07:31:45;3.47;;;1.52;;
38123;SDS011;23934;47.998;9.832;2022-10-26T07:34:11;6.68;;;2.50;;
38123;SDS011;23934;47.998;9.832;2022-10-26T07:36:37;2.65;;;1.40;;
38123;SDS011;23934;47.998;9.832;2022-10-26T07:39:03;7.72;;;1.75;;
38123;SDS011;23934;47.998;9.832;2022-10-26T07:41:29;7.88;;;1.60;;
38123;SDS011;23934;47.998;9.832;2022-10-26T07:43:56;3.47;;;1.67;;
38123;SDS011;23934;47.998;9.832;2022-10-26T07:46:22;15.40;;;3.47;;
38123;SDS011;23934;47.998;9.832;2022-10-26T07:48:48;8.45;;;3.05;;
38123;SDS011;23934;47.998;9.832;2022-10-26T07:51:14;6.72;;;2.90;;
38123;SDS011;23934;47.998;9.832;2022-10-26T07:53:40;8.18;;;2.58;;
38123;SDS011;23934;47.998;9.832;2022-10-26T07:56:06;5.93;;;1.65;;
38123;SDS011;23934;47.998;9.832;2022-10-26T07:58:32;6.38;;;2.08;;
38123;SDS011;23934;47.998;9.832;2022-10-26T08:01:05;12.02;;;2.95;;
38123;SDS011;23934;47.998;9.832;2022-10-26T08:03:31;11.60;;;2.53;;
38123;SDS011;23934;47.998;9.832;2022-10-26T08:05:57;5.50;;;1.80;;
38123;SDS011;23934;47.998;9.832;2022-10-26T08:08:23;7.60;;;1.95;;
38123;SDS011;23934;47.998;9.832;2022-10-26T08:10:49;7.20;;;2.22;;
38123;SDS011;23934;47.998;9.832;2022-10-26T08:13:16;8.52;;;1.88;;
38123;SDS011;23934;47.998;9.832;2022-10-26T08:15:42;8.88;;;1.67;;
38123;SDS011;23934;47.998;9.832;2022-10-26T08:18:08;6.53;;;1.80;;
38123;SDS011;23934;47.998;9.832;2022-10-26T08:20:34;9.20;;;1.75;;
38123;SDS011;23934;47.998;9.832;2022-10-26T08:23:00;4.75;;;1.85;;
38123;SDS011;23934;47.998;9.832;2022-10-26T08:25:30;5.05;;;2.28;;
38123;SDS011;23934;47.998;9.832;2022-10-26T08:27:59;10.77;;;1.75;;
38123;SDS011;23934;47.998;9.832;2022-10-26T08:30:25;5.28;;;1.75;;
38123;SDS011;23934;47.998;9.832;2022-10-26T08:32:57;9.15;;;1.85;;
38123;SDS011;23934;47.998;9.832;2022-10-26T08:35:23;10.77;;;1.80;;
38123;SDS011;23934;47.998;9.832;2022-10-26T08:37:48;2.92;;;1.20;;
38123;SDS011;23934;47.998;9.832;2022-10-26T08:40:14;2.55;;;1.10;;
38123;SDS011;23934;47.998;9.832;2022-10-26T08:42:42;9.80;;;1.33;;
38123;SDS011;23934;47.998;9.832;2022-10-26T08:45:25;4.15;;;1.70;;
38123;SDS011;23934;47.998;9.832;2022-10-26T08:47:53;2.50;;;1.52;;
38123;SDS011;23934;47.998;9.832;2022-10-26T08:50:26;4.68;;;1.27;;
38123;SDS011;23934;47.998;9.832;2022-10-26T08:52:55;17.83;;;1.80;;
38123;SDS011;23934;47.998;9.832;2022-10-26T08:55:28;2.90;;;1.38;;
38123;SDS011;23934;47.998;9.832;2022-10-26T08:57:55;8.20;;;1.70;;
38123;SDS011;23934;47.998;9.832;2022-10-26T09:00:21;4.38;;;1.23;;
38123;SDS011;23934;47.998;9.832;2022-10-26T09:02:48;4.78;;;1.20;;
38123;SDS011;23934;47.998;9.832;2022-10-26T09:05:16;2.38;;;1.20;;
38123;SDS011;23934;47.998;9.832;2022-10-26T09:10:33;2.92;;;1.23;;
38123;SDS011;23934;47.998;9.832;2022-10-26T09:15:43;3.17;;;1.27;;
38123;SDS011;23934;47.998;9.832;2022-10-26T09:18:22;4.50;;;1.58;;
38123;SDS011;23934;47.998;9.832;2022-10-26T09:20:53;5.55;;;1.25;;
38123;SDS011;23934;47.998;9.832;2022-10-26T09:26:00;3.10;;;1.25;;
38123;SDS011;23934;47.998;9.832;2022-10-26T09:28:29;2.88;;;1.35;;
38123;SDS011;23934;47.998;9.832;2022-10-26T09:30:58;6.18;;;1.55;;
38123;SDS011;23934;47.998;9.832;2022-10-26T09:33:24;4.40;;;1.25;;
38123;SDS011;23934;47.998;9.832;2022-10-26T09:35:58;4.65;;;1.92;;
38123;SDS011;23934;47.998;9.832;2022-10-26T09:38:31;4.93;;;1.75;;
38123;SDS011;23934;47.998;9.832;2022-10-26T09:45:53;3.28;;;1.27;;
38123;SDS011;23934;47.998;9.832;2022-10-26T09:48:34;2.83;;;1.15;;
38123;SDS011;23934;47.998;9.832;2022-10-26T09:51:01;4.47;;;1.70;;
38123;SDS011;23934;47.998;9.832;2022-10-26T09:53:27;4.43;;;1.90;;
38123;SDS011;23934;47.998;9.832;2022-10-26T09:55:58;6.70;;;1.80;;
38123;SDS011;23934;47.998;9.832;2022-10-26T09:58:27;10.55;;;1.67;;
38123;SDS011;23934;47.998;9.832;2022-10-26T10:00:54;5.68;;;1.83;;
38123;SDS011;23934;47.998;9.832;2022-10-26T10:03:23;10.57;;;2.15;;
38123;SDS011;23934;47.998;9.832;2022-10-26T10:05:50;2.42;;;1.20;;
38123;SDS011;23934;47.998;9.832;2022-10-26T10:08:23;3.67;;;1.15;;
38123;SDS011;23934;47.998;9.832;2022-10-26T10:13:21;7.90;;;2.08;;
38123;SDS011;23934;47.998;9.832;2022-10-26T10:15:52;10.32;;;2.25;;
38123;SDS011;23934;47.998;9.832;2022-10-26T10:18:21;4.68;;;1.40;;
38123;SDS011;23934;47.998;9.832;2022-10-26T10:20:55;5.45;;;1.42;;
38123;SDS011;23934;47.998;9.832;2022-10-26T10:23:29;5.43;;;1.30;;
38123;SDS011;23934;47.998;9.832;2022-10-26T10:26:09;2.55;;;1.55;;
38123;SDS011;23934;47.998;9.832;2022-10-26T10:28:35;3.70;;;1.17;;
38123;SDS011;23934;47.998;9.832;2022-10-26T10:31:02;4.03;;;1.15;;
38123;SDS011;23934;47.998;9.832;2022-10-26T10:33:36;4.68;;;1.30;;
38123;SDS011;23934;47.998;9.832;2022-10-26T10:36:03;5.65;;;1.45;;
38123;SDS011;23934;47.998;9.832;2022-10-26T10:38:35;9.23;;;1.45;;
38123;SDS011;23934;47.998;9.832;2022-10-26T10:41:01;10.02;;;1.70;;
38123;SDS011;23934;47.998;9.832;2022-10-26T10:43:28;7.82;;;2.47;;
38123;SDS011;23934;47.998;9.832;2022-10-26T10:45:54;7.47;;;2.20;;
38123;SDS011;23934;47.998;9.832;2022-10-26T10:48:25;5.75;;;1.38;;
38123;SDS011;23934;47.998;9.832;2022-10-26T10:56:00;4.78;;;1.92;;
38123;SDS011;23934;47.998;9.832;2022-10-26T11:01:19;5.68;;;1.77;;
38123;SDS011;23934;47.998;9.832;2022-10-26T11:06:22;7.55;;;1.83;;
38123;SDS011;23934;47.998;9.832;2022-10-26T11:11:18;5.05;;;1.92;;
38123;SDS011;23934;47.998;9.832;2022-10-26T11:13:52;7.53;;;1.85;;
38123;SDS011;23934;47.998;9.832;2022-10-26T11:16:22;8.48;;;2.38;;
38123;SDS011;23934;47.998;9.832;2022-10-26T11:18:51;7.45;;;2.08;;
38123;SDS011;23934;47.998;9.832;2022-10-26T11:21:26;7.22;;;1.60;;
38123;SDS011;23934;47.998;9.832;2022-10-26T11:26:50;5.75;;;1.67;;
38123;SDS011;23934;47.998;9.832;2022-10-26T11:35:04;6.20;;;2.22;;
38123;SDS011;23934;47.998;9.832;2022-10-26T11:40:35;10.45;;;1.95;;
38123;SDS011;23934;47.998;9.832;2022-10-26T11:45:45;3.85;;;1.92;;
38123;SDS011;23934;47.998;9.832;2022-10-26T11:48:19;7.30;;;2.08;;
38123;SDS011;23934;47.998;9.832;2022-10-26T11:50:48;5.40;;;1.70;;
38123;SDS011;23934;47.998;9.832;2022-10-26T11:53:23;10.73;;;2.47;;
38123;SDS011;23934;47.998;9.832;2022-10-26T11:55:50;3.33;;;1.52;;
38123;SDS011;23934;47.998;9.832;2022-10-26T11:58:17;8.13;;;1.88;;
38123;SDS011;23934;47.998;9.832;2022-10-26T12:00:53;5.13;;;1.73;;
38123;SDS011;23934;47.998;9.832;2022-10-26T12:03:29;5.78;;;1.90;;
38123;SDS011;23934;47.998;9.832;2022-10-26T12:05:57;7.38;;;1.73;;
38123;SDS011;23934;47.998;9.832;2022-10-26T12:08:24;6.03;;;1.60;;
38123;SDS011;23934;47.998;9.832;2022-10-26T12:10:55;12.85;;;2.30;;
38123;SDS011;23934;47.998;9.832;2022-10-26T12:13:27;3.97;;;1.70;;
38123;SDS011;23934;47.998;9.832;2022-10-26T12:18:33;17.27;;;2.50;;
38123;SDS011;23934;47.998;9.832;2022-10-26T12:21:03;6.68;;;1.88;;
38123;SDS011;23934;47.998;9.832;2022-10-26T12:23:38;3.72;;;1.95;;
38123;SDS011;23934;47.998;9.832;2022-10-26T12:34:03;7.07;;;2.28;;
38123;SDS011;23934;47.998;9.832;2022-10-26T12:41:56;11.02;;;3.15;;
38123;SDS011;23934;47.998;9.832;2022-10-26T12:46:58;5.00;;;2.25;;
38123;SDS011;23934;47.998;9.832;2022-10-26T12:52:19;10.40;;;2.13;;
38123;SDS011;23934;47.998;9.832;2022-10-26T12:54:54;8.35;;;2.50;;
38123;SDS011;23934;47.998;9.832;2022-10-26T13:00:13;7.05;;;2.53;;
38123;SDS011;23934;47.998;9.832;2022-10-26T13:02:53;5.15;;;2.25;;
38123;SDS011;23934;47.998;9.832;2022-10-26T13:05:27;7.00;;;2.10;;
38123;SDS011;23934;47.998;9.832;2022-10-26T13:08:02;9.35;;;2.70;;
38123;SDS011;23934;47.998;9.832;2022-10-26T13:10:29;10.02;;;2.60;;
38123;SDS011;23934;47.998;9.832;2022-10-26T13:12:56;11.32;;;2.55;;
38123;SDS011;23934;47.998;9.832;2022-10-26T13:15:26;7.43;;;2.67;;
38123;SDS011;23934;47.998;9.832;2022-10-26T13:20:28;8.20;;;2.00;;
38123;SDS011;23934;47.998;9.832;2022-10-26T13:22:55;7.03;;;2.25;;
38123;SDS011;23934;47.998;9.832;2022-10-26T13:25:22;5.45;;;2.17;;
38123;SDS011;23934;47.998;9.832;2022-10-26T13:27:56;9.25;;;2.42;;
38123;SDS011;23934;47.998;9.832;2022-10-26T13:32:58;9.48;;;2.35;;
38123;SDS011;23934;47.998;9.832;2022-10-26T13:35:24;11.05;;;2.15;;
38123;SDS011;23934;47.998;9.832;2022-10-26T13:37:52;9.57;;;2.47;;
38123;SDS011;23934;47.998;9.832;2022-10-26T13:40:20;6.47;;;2.40;;
38123;SDS011;23934;47.998;9.832;2022-10-26T13:42:47;12.07;;;2.72;;
38123;SDS011;23934;47.998;9.832;2022-10-26T13:45:15;6.90;;;2.20;;
38123;SDS011;23934;47.998;9.832;2022-10-26T13:50:25;14.48;;;2.25;;
38123;SDS011;23934;47.998;9.832;2022-10-26T13:52:59;7.00;;;2.63;;
38123;SDS011;23934;47.998;9.832;2022-10-26T13:55:27;10.18;;;2.60;;
38123;SDS011;23934;47.998;9.832;2022-10-26T14:00:53;11.57;;;2.47;;
38123;SDS011;23934;47.998;9.832;2022-10-26T14:03:25;7.10;;;2.25;;
38123;SDS011;23934;47.998;9.832;2022-10-26T14:05:51;12.48;;;2.92;;
38123;SDS011;23934;47.998;9.832;2022-10-26T14:08:17;9.13;;;2.33;;
38123;SDS011;23934;47.998;9.832;2022-10-26T14:10:51;7.97;;;2.38;;
38123;SDS011;23934;47.998;9.832;2022-10-26T14:13:19;8.27;;;3.08;;
38123;SDS011;23934;47.998;9.832;2022-10-26T14:15:46;8.20;;;2.70;;
38123;SDS011;23934;47.998;9.832;2022-10-26T14:18:22;9.15;;;2.80;;
38123;SDS011;23934;47.998;9.832;2022-10-26T14:20:54;6.35;;;2.50;;
38123;SDS011;23934;47.998;9.832;2022-10-26T14:23:37;11.88;;;2.70;;
38123;SDS011;23934;47.998;9.832;2022-10-26T14:26:36;10.07;;;2.70;;
38123;SDS011;23934;47.998;9.832;2022-10-26T14:28:57;10.23;;;2.30;;
38123;SDS011;23934;47.998;9.832;2022-10-26T14:31:24;9.27;;;2.65;;
38123;SDS011;23934;47.998;9.832;2022-10-26T14:33:51;9.55;;;2.63;;
38123;SDS011;23934;47.998;9.832;2022-10-26T14:36:18;7.13;;;2.55;;
38123;SDS011;23934;47.998;9.832;2022-10-26T14:38:45;10.88;;;2.88;;
38123;SDS011;23934;47.998;9.832;2022-10-26T14:41:13;7.47;;;2.55;;
38123;SDS011;23934;47.998;9.832;2022-10-26T14:43:40;16.58;;;2.85;;
38123;SDS011;23934;47.998;9.832;2022-10-26T14:46:11;12.45;;;3.35;;
38123;SDS011;23934;47.998;9.832;2022-10-26T14:48:37;23.60;;;3.30;;
38123;SDS011;23934;47.998;9.832;2022-10-26T14:51:08;6.28;;;2.78;;
38123;SDS011;23934;47.998;9.832;2022-10-26T14:53:38;10.43;;;3.00;;
38123;SDS011;23934;47.998;9.832;2022-10-26T14:56:22;17.63;;;3.85;;
38123;SDS011;23934;47.998;9.832;2022-10-26T14:58:49;10.85;;;2.67;;
38123;SDS011;23934;47.998;9.832;2022-10-26T15:01:22;13.13;;;2.85;;
38123;SDS011;23934;47.998;9.832;2022-10-26T15:03:51;8.32;;;2.63;;
38123;SDS011;23934;47.998;9.832;2022-10-26T15:06:28;11.85;;;3.20;;
38123;SDS011;23934;47.998;9.832;2022-10-26T15:08:55;8.85;;;2.92;;
38123;SDS011;23934;47.998;9.832;2022-10-26T15:11:21;22.20;;;4.13;;
38123;SDS011;23934;47.998;9.832;2022-10-26T15:13:47;9.85;;;3.05;;
38123;SDS011;23934;47.998;9.832;2022-10-26T15:16:18;9.75;;;3.80;;
38123;SDS011;23934;47.998;9.832;2022-10-26T15:18:45;13.60;;;3.65;;
38123;SDS011;23934;47.998;9.832;2022-10-26T15:21:22;11.00;;;3.40;;
38123;SDS011;23934;47.998;9.832;2022-10-26T15:23:48;17.75;;;3.40;;
38123;SDS011;23934;47.998;9.832;2022-10-26T15:26:15;16.10;;;3.75;;
38123;SDS011;23934;47.998;9.832;2022-10-26T15:28:41;14.40;;;3.65;;
38123;SDS011;23934;47.998;9.832;2022-10-26T15:33:37;11.38;;;3.53;;
38123;SDS011;23934;47.998;9.832;2022-10-26T15:38:33;12.85;;;3.83;;
38123;SDS011;23934;47.998;9.832;2022-10-26T15:40:59;13.88;;;3.53;;
38123;SDS011;23934;47.998;9.832;2022-10-26T15:43:25;15.18;;;3.10;;
38123;SDS011;23934;47.998;9.832;2022-10-26T15:45:51;15.95;;;3.92;;
38123;SDS011;23934;47.998;9.832;2022-10-26T15:50:48;14.63;;;3.35;;
38123;SDS011;23934;47.998;9.832;2022-10-26T15:53:18;10.07;;;4.05;;
38123;SDS011;23934;47.998;9.832;2022-10-26T15:55:44;16.08;;;3.67;;
38123;SDS011;23934;47.998;9.832;2022-10-26T15:58:11;10.45;;;3.25;;
38123;SDS011;23934;47.998;9.832;2022-10-26T16:00:36;12.40;;;3.38;;
38123;SDS011;23934;47.998;9.832;2022-10-26T16:03:02;20.60;;;5.03;;
38123;SDS011;23934;47.998;9.832;2022-10-26T16:05:28;27.85;;;4.82;;
38123;SDS011;23934;47.998;9.832;2022-10-26T16:07:54;16.65;;;4.15;;
38123;SDS011;23934;47.998;9.832;2022-10-26T16:10:21;19.05;;;5.10;;
38123;SDS011;23934;47.998;9.832;2022-10-26T16:12:47;19.77;;;5.20;;
38123;SDS011;23934;47.998;9.832;2022-10-26T16:15:23;12.77;;;3.92;;
38123;SDS011;23934;47.998;9.832;2022-10-26T16:17:50;12.80;;;3.78;;
38123;SDS011;23934;47.998;9.832;2022-10-26T16:20:17;11.68;;;4.38;;
38123;SDS011;23934;47.998;9.832;2022-10-26T16:22:45;16.75;;;3.78;;
38123;SDS011;23934;47.998;9.832;2022-10-26T16:25:12;24.65;;;5.22;;
38123;SDS011;23934;47.998;9.832;2022-10-26T16:27:38;18.77;;;5.30;;
38123;SDS011;23934;47.998;9.832;2022-10-26T16:30:04;15.10;;;4.57;;
38123;SDS011;23934;47.998;9.832;2022-10-26T16:32:31;24.75;;;4.97;;
38123;SDS011;23934;47.998;9.832;2022-10-26T16:34:56;27.73;;;4.28;;
38123;SDS011;23934;47.998;9.832;2022-10-26T16:37:22;14.05;;;4.00;;
38123;SDS011;23934;47.998;9.832;2022-10-26T16:39:48;21.25;;;7.53;;
38123;SDS011;23934;47.998;9.832;2022-10-26T16:42:14;20.13;;;6.57;;
38123;SDS011;23934;47.998;9.832;2022-10-26T16:44:40;22.35;;;7.72;;
38123;SDS011;23934;47.998;9.832;2022-10-26T16:47:06;20.27;;;6.10;;
38123;SDS011;23934;47.998;9.832;2022-10-26T16:49:32;16.75;;;4.15;;
38123;SDS011;23934;47.998;9.832;2022-10-26T16:51:58;15.43;;;5.10;;
38123;SDS011;23934;47.998;9.832;2022-10-26T16:54:24;13.88;;;4.15;;
38123;SDS011;23934;47.998;9.832;2022-10-26T16:56:50;22.90;;;7.63;;
38123;SDS011;23934;47.998;9.832;2022-10-26T16:59:16;27.48;;;9.73;;
38123;SDS011;23934;47.998;9.832;2022-10-26T17:01:42;29.67;;;11.02;;
38123;SDS011;23934;47.998;9.832;2022-10-26T17:04:08;26.13;;;6.80;;
38123;SDS011;23934;47.998;9.832;2022-10-26T17:06:34;20.33;;;5.15;;